GUCY/CKY METAR and TAF weather

Enter ICAO airport designator
Station Type Date Time Source
GUCY METAR 2023/02/04 00:00 UTC NOAA

GUCY 040000Z 31004KT 4000 BR NSC 27/23 Q1013 NOSIG RMK 10


Station Type Date Time Source
GUCY Decoded METAR 2023/02/04 00:00 UTC NOAA

Conakry / Gbessia, Guinea (GUCY) 09-34N 013-37W 26M
Feb 03, 2023 - 07:00 PM EST / 2023.02.04 0000 UTC
Wind: from the NW (310 degrees) at 5 MPH (4 KT):0
Visibility: 2 mile(s):0
Weather: mist
Temperature: 80 F (27 C)
Dew Point: 73 F (23 C)
Relative Humidity: 78%
Pressure (altimeter): 29.91 in. Hg (1013 hPa)
ob: GUCY 040000Z 31004KT 4000 BR NSC 27/23 Q1013 NOSIG RMK 10
cycle: 0

Station Type Date Time Source
GUCY TAF 2023/02/03 18:51 UTC NOAA

TAF TAF GUCY 031700Z 0318/0424 300006KT 5000 HZ NSC
TEMPO 0323/0403 4000 HZ FEW015 SCT110
BECMG 0405/0409 VRB02KT 3000 BR FEW015 BKN110

Example: see airport list